Thunder radar more information blitzortung!


Radar de pluja more information rain snow radar


Visita la nostra xarxa de llocs de meteo:

Template documentation
and downloads

And another site



Extreme low temperature From: 23-02-2018 00:00 Until: 09:59 warning for: Extreme low temperature Level: Yellow info button

Pagina Historial Weather Underground text

Diari Resum May 16, 2016 Unitats:  Mètric    Imperial   Tant
« Previous Dia
SegĂźent Dia »
Diari Setmana Mensual Anual Personalitzada
  Maxima: Minima: Media:
Temperatura: -17.8 °C -11.2 °C -7.2 °C
Punt de rosada: -17.8 °C -15.3 °C -13.6 °C
Humitat: Humidity % 37 % 47 %
Wind Speed: 0 km/h 0 km/h 10.5 km/h
RĂ fegues de vent: 0 km/h - -
Vent:- - South
Pression baro: 0 hPa 34496.6 hPa -
Precipitacions: 0 mm    
Historical Graphs
 
 
Dades de taula per May 16, 2016
Temps Temperatura Punt de rosada Pression baro Vent Wind Speed RĂ fegues de vent Humitat Rainfall Rate (Hourly)
-17.8 °C -17.8 °C 0 hPa Calm     Humidity % 0 mm
00:00 -8.8 °C -11.8 °C 34567.7 hPa East 9 km/h 9.3 km/h 70 % 0 mm
00:05 -8.8 °C -11.8 °C 34567.7 hPa East 9 km/h 9.3 km/h 71 % 0 mm
00:10 -8.8 °C -11.8 °C 34567.7 hPa East 9 km/h 9.3 km/h 71 % 0 mm
00:15 -10.3 °C -14.4 °C 34601.5 hPa Calm   2.6 km/h 61 % 0 mm
00:25 -10.4 °C -14.5 °C 34601.5 hPa Calm     61 % 0 mm
00:35 -10.5 °C -14.6 °C 34601.5 hPa Calm     61 % 0 mm
00:45 -10.6 °C -14.7 °C 34601.5 hPa Calm     61 % 0 mm
00:55 -10.7 °C -14.8 °C 34567.7 hPa Calm     61 % 0 mm
01:05 -10.8 °C -14.8 °C 34567.7 hPa Calm     61 % 0 mm
01:15 -10.8 °C -14.9 °C 34601.5 hPa Calm     61 % 0 mm
01:25 -10.9 °C -14.9 °C 34601.5 hPa Calm     61 % 0 mm
01:35 -11 °C -15.1 °C 34601.5 hPa Calm     61 % 0 mm
01:45 -11.1 °C -15.1 °C 34601.5 hPa Calm     61 % 0 mm
01:55 -11.2 °C -15.2 °C 34635.4 hPa Calm     61 % 0 mm
02:05 -11.2 °C -15.3 °C 34635.4 hPa Calm     61 % 0 mm
02:15 -11.2 °C -15.1 °C 34635.4 hPa Calm     62 % 0 mm
02:25 -11.1 °C -14.9 °C 34635.4 hPa Calm     62 % 0 mm
02:35 -11.1 °C -14.9 °C 34635.4 hPa Calm     62 % 0 mm
02:45 -10.9 °C -14.9 °C 34635.4 hPa Calm     62 % 0 mm
02:55 -10.7 °C -14.6 °C 34635.4 hPa Calm     62 % 0 mm
03:05 -10.4 °C -14.6 °C 34635.4 hPa North 2.6 km/h 5.1 km/h 61 % 0 mm
03:15 -10.2 °C -14.3 °C 34635.4 hPa WNW 2.6 km/h 5.1 km/h 61 % 0 mm
03:25 -10.1 °C -14.3 °C 34635.4 hPa WSW 2.6 km/h 2.6 km/h 60 % 0 mm
03:35 -9.7 °C -14.1 °C 34635.4 hPa SSW 2.6 km/h 5.1 km/h 59 % 0 mm
03:45 -9.5 °C -13.9 °C 34635.4 hPa Calm   2.6 km/h 59 % 0 mm
03:55 -9.4 °C -13.8 °C 34635.4 hPa East 7.7 km/h 10.3 km/h 59 % 0 mm
04:05 -9.4 °C -13.9 °C 34635.4 hPa ENE 7.7 km/h 10.3 km/h 58 % 0 mm
04:15 -9.2 °C -13.9 °C 34669.3 hPa NNE 5.1 km/h 7.7 km/h 57 % 0 mm
04:25 -9.1 °C -13.8 °C 34635.4 hPa NE 7.7 km/h 10.3 km/h 57 % 0 mm
04:35 -8.8 °C -13.6 °C 34635.4 hPa NE 7.7 km/h 15.6 km/h 57 % 0 mm
04:45 -8.8 °C -13.7 °C 34669.3 hPa NE 7.7 km/h 10.3 km/h 56 % 0 mm
04:55 -8.6 °C -13.5 °C 34669.3 hPa NE 5.1 km/h 10.3 km/h 56 % 0 mm
05:05 -8.5 °C -13.4 °C 34669.3 hPa ENE 7.7 km/h 10.3 km/h 56 % 0 mm
05:15 -8.3 °C -13.5 °C 34669.3 hPa ENE 2.6 km/h 10.3 km/h 54 % 0 mm
05:25 -8.1 °C -13.4 °C 34635.4 hPa ENE 7.7 km/h 20.8 km/h 53 % 0 mm
05:35 -7.9 °C -13.3 °C 34635.4 hPa NNE 7.7 km/h 10.3 km/h 53 % 0 mm
05:45 -7.7 °C -13.1 °C 34635.4 hPa NNE 5.1 km/h 10.3 km/h 53 % 0 mm
05:55 -7.3 °C -12.9 °C 34635.4 hPa NNE 2.6 km/h 5.1 km/h 52 % 0 mm
06:05 -7.2 °C -13.3 °C 34635.4 hPa SSW 2.6 km/h 5.1 km/h 49 % 0 mm
06:15 -7.2 °C -13.3 °C 34635.4 hPa SSW 2.6 km/h 5.1 km/h 49 % 0 mm
06:25 -6.8 °C -13.1 °C 34635.4 hPa SSW 2.6 km/h 5.1 km/h 48 % 0 mm
06:35 -6.6 °C -13.1 °C 34635.4 hPa SSW 7.7 km/h 10.3 km/h 47 % 0 mm
06:45 -6.5 °C -13.2 °C 34635.4 hPa SSW 5.1 km/h 10.3 km/h 46 % 0 mm
06:55 -6.3 °C -13 °C 34635.4 hPa South 7.7 km/h 18.2 km/h 46 % 0 mm
07:05 -5.9 °C -12.8 °C 34635.4 hPa SSE 2.6 km/h 7.7 km/h 45 % 0 mm
07:15 -5.7 °C -12.6 °C 34601.5 hPa SSW 2.6 km/h 7.7 km/h 45 % 0 mm
07:25 -5.8 °C -12.9 °C 34601.5 hPa WSW 2.6 km/h 2.6 km/h 44 % 0 mm
12:26 -5.7 °C -12.8 °C 34601.5 hPa West 3.1 km/h 5.1 km/h 44 % 0 mm
12:31 -5.4 °C -12.6 °C 34601.5 hPa West 3.1 km/h 5.1 km/h 44 % 0 mm
12:36 -5.2 °C -12.6 °C 34635.4 hPa SSW 3.7 km/h 5.6 km/h 43 % 0 mm
12:41 -5.5 °C -13 °C 34635.4 hPa West 11.9 km/h 11.9 km/h 42 % 0 mm
12:46 -5.7 °C -13.2 °C 34635.4 hPa East 11.9 km/h 11.9 km/h 42 % 0 mm
12:51 -5.5 °C -13 °C 34601.5 hPa West 15 km/h 15 km/h 42 % 0 mm
12:56 -5.6 °C -13.1 °C 34601.5 hPa NNE 20.9 km/h 20.9 km/h 42 % 0 mm
13:01 -5.2 °C -12.7 °C 34601.5 hPa WSW 6 km/h 6 km/h 42 % 0 mm
13:06 -4.9 °C -12.7 °C 34601.5 hPa WNW 6 km/h 6 km/h 41 % 0 mm
13:11 -5.2 °C -12.9 °C 34601.5 hPa SW 11.9 km/h 11.9 km/h 41 % 0 mm
13:16 -4.9 °C -12.7 °C 34601.5 hPa SSW 9 km/h 9 km/h 41 % 0 mm
13:21 -4.9 °C -12.9 °C 34601.5 hPa WSW 9 km/h 9 km/h 40 % 0 mm
13:31 -5 °C -13.4 °C 34601.5 hPa SW 23.8 km/h 23.8 km/h 38 % 0 mm
13:36 -5 °C -13.2 °C 34601.5 hPa West 11.9 km/h 11.9 km/h 39 % 0 mm
13:41 -4.7 °C -12.7 °C 34601.5 hPa SSW 15.3 km/h 15.3 km/h 40 % 0 mm
13:47 -4.8 °C -13.2 °C 34601.5 hPa WSW 23.8 km/h 23.8 km/h 38 % 0 mm
13:52 -4.8 °C -13.2 °C 34601.5 hPa WSW 9 km/h 9.3 km/h 38 % 0 mm
13:57 -4.7 °C -13.2 °C 34601.5 hPa SW 14 km/h 14 km/h 38 % 0 mm
14:02 -4.4 °C -12.9 °C 34601.5 hPa South 6 km/h 6 km/h 38 % 0 mm
14:07 -4.4 °C -12.9 °C 34601.5 hPa West 16.1 km/h 16.1 km/h 38 % 0 mm
14:12 -4.6 °C -13.2 °C 34601.5 hPa WSW 11.9 km/h 11.9 km/h 37 % 0 mm
14:17 -5 °C -12.9 °C 34601.5 hPa ESE 25.1 km/h 25.1 km/h 40 % 0 mm
14:22 -5.3 °C -12.9 °C 34567.7 hPa East 26.9 km/h 26.9 km/h 42 % 0 mm
14:32 -5.5 °C -12.6 °C 34567.7 hPa East 35.7 km/h 35.7 km/h 44 % 0 mm
14:37 -5.7 °C -12.6 °C 34533.8 hPa ESE 19.2 km/h 19.2 km/h 45 % 0 mm
14:42 -5.8 °C -12.7 °C 34533.8 hPa East 20.9 km/h 20.9 km/h 45 % 0 mm
14:47 -6 °C -12.7 °C 34533.8 hPa ESE 22 km/h 22 km/h 46 % 0 mm
14:52 -6 °C -12.7 °C 34496.6 hPa NNW 23.8 km/h 23.8 km/h 46 % 0 mm
14:57 -5.9 °C -12.5 °C 34496.6 hPa SE 23.8 km/h 23.8 km/h 47 % 0 mm
15:02 -6 °C -12.6 °C 34496.6 hPa East 35.7 km/h 35.7 km/h 47 % 0 mm
15:07 -5.8 °C -12.4 °C 34533.8 hPa NE 32.8 km/h 32.8 km/h 47 % 0 mm
15:12 -6.1 °C -12.6 °C 34533.8 hPa East 26.9 km/h 26.9 km/h 47 % 0 mm
15:17 -5.8 °C -12.4 °C 34533.8 hPa ESE 26.9 km/h 26.9 km/h 47 % 0 mm
15:22 -5.9 °C -12.4 °C 34533.8 hPa ESE 23.8 km/h 23.8 km/h 47 % 0 mm
15:27 -5.9 °C -12.4 °C 34533.8 hPa East 26.9 km/h 26.9 km/h 47 % 0 mm
15:32 -5.9 °C -12.3 °C 34533.8 hPa East 17.9 km/h 17.9 km/h 48 % 0 mm
15:37 -5.9 °C -12.3 °C 34533.8 hPa ENE 17.9 km/h 17.9 km/h 48 % 0 mm
15:42 -5.8 °C -12.2 °C 34533.8 hPa ESE 17.9 km/h 17.9 km/h 48 % 0 mm
15:47 -5.9 °C -12.3 °C 34533.8 hPa ESE 23.8 km/h 23.8 km/h 48 % 0 mm
15:52 -5.9 °C -12.3 °C 34533.8 hPa ESE 26.9 km/h 26.9 km/h 48 % 0 mm
15:57 -5.8 °C -12.2 °C 34533.8 hPa ESE 29.8 km/h 29.8 km/h 48 % 0 mm
16:02 -5.6 °C -12.1 °C 34533.8 hPa SW 15 km/h 15 km/h 47 % 0 mm
16:07 -4.9 °C -11.7 °C 34533.8 hPa SW 9 km/h 9 km/h 46 % 0 mm
16:12 -4.8 °C -12.2 °C 34533.8 hPa WSW 15 km/h 15 km/h 43 % 0 mm
16:17 -4.8 °C -12.2 °C 34533.8 hPa SW 9 km/h 9 km/h 43 % 0 mm
16:22 -4.4 °C -12 °C 34533.8 hPa SSW 15 km/h 15 km/h 42 % 0 mm
16:27 -4.3 °C -11.9 °C 34533.8 hPa SSW 15 km/h 15 km/h 42 % 0 mm
16:32 -4.5 °C -12.3 °C 34533.8 hPa WSW 20.9 km/h 20.9 km/h 41 % 0 mm
16:37 -4.4 °C -12.3 °C 34533.8 hPa WSW 9.8 km/h 9.8 km/h 41 % 0 mm
16:42 -4.3 °C -12.4 °C 34533.8 hPa WSW 17.9 km/h 17.9 km/h 40 % 0 mm
16:47 -4.2 °C -12.3 °C 34533.8 hPa SW 23.8 km/h 23.8 km/h 40 % 0 mm
16:52 -4.2 °C -12.3 °C 34533.8 hPa SW 14.5 km/h 14.5 km/h 40 % 0 mm
16:57 -4.4 °C -12.4 °C 34533.8 hPa SSW 35.7 km/h 35.7 km/h 40 % 0 mm
17:02 -4.3 °C -12.3 °C 34533.8 hPa SW 17.9 km/h 17.9 km/h 40 % 0 mm
17:07 -4.3 °C -12.3 °C 34533.8 hPa WSW 11.9 km/h 11.9 km/h 40 % 0 mm
17:12 -4.3 °C -12.4 °C 34533.8 hPa SW 11.9 km/h 11.9 km/h 40 % 0 mm
17:17 -4.8 °C -12.9 °C 34533.8 hPa WSW 20.9 km/h 20.9 km/h 39 % 0 mm
17:22 -5 °C -13.2 °C 34533.8 hPa WSW 17.9 km/h 17.9 km/h 39 % 0 mm
17:27 -4.5 °C -12.5 °C 34533.8 hPa SSW 9 km/h 9 km/h 40 % 0 mm
17:32 -4.7 °C -12.9 °C 34533.8 hPa SW 29.8 km/h 29.8 km/h 39 % 0 mm
17:37 -4.8 °C -12.9 °C 34496.6 hPa South 17.9 km/h 17.9 km/h 39 % 0 mm
17:42 -4.7 °C -12.9 °C 34496.6 hPa WSW 19.6 km/h 19.6 km/h 39 % 0 mm
17:47 -4.9 °C -13.3 °C 34496.6 hPa SW 26.9 km/h 26.9 km/h 38 % 0 mm
17:52 -4.9 °C -13.1 °C 34496.6 hPa South 15 km/h 15 km/h 39 % 0 mm
17:57 -4.8 °C -12.9 °C 34496.6 hPa SW 15 km/h 15 km/h 39 % 0 mm
18:02 -5 °C -13.4 °C 34496.6 hPa SSW 20.9 km/h 20.9 km/h 38 % 0 mm
18:07 -5.3 °C -13.2 °C 34533.8 hPa SSW 17.9 km/h 17.9 km/h 40 % 0 mm
18:12 -5.3 °C -13.3 °C 34533.8 hPa West 20.9 km/h 20.9 km/h 40 % 0 mm
18:17 -5.1 °C -13 °C 34533.8 hPa SW 11.9 km/h 11.9 km/h 40 % 0 mm
18:22 -5.1 °C -13.1 °C 34533.8 hPa WSW 11.9 km/h 11.9 km/h 40 % 0 mm
18:27 -5.2 °C -13.3 °C 34533.8 hPa SW 20.9 km/h 20.9 km/h 39 % 0 mm
18:32 -5.2 °C -13.4 °C 34533.8 hPa WSW 25.4 km/h 25.4 km/h 39 % 0 mm
18:37 -5.2 °C -13.4 °C 34496.6 hPa SW 6.3 km/h 11.6 km/h 39 % 0 mm
18:47 -5.4 °C -13.5 °C 34496.6 hPa West 15 km/h 15.3 km/h 39 % 0 mm
18:57 -5.6 °C -13.5 °C 34496.6 hPa West 9 km/h 15.3 km/h 40 % 0 mm
19:02 -5.8 °C -13.7 °C 34496.6 hPa West 9 km/h 15.3 km/h 40 % 0 mm
19:07 -5.9 °C -13.8 °C 34496.6 hPa West 9 km/h 15.3 km/h 40 % 0 mm
19:12 -6.1 °C -13.9 °C 34496.6 hPa SW 17.9 km/h 17.9 km/h 40 % 0 mm
19:17 -6.1 °C -13.8 °C 34496.6 hPa SW 16.1 km/h 16.1 km/h 41 % 0 mm
19:22 -6.3 °C -13.8 °C 34496.6 hPa SSW 15 km/h 15 km/h 42 % 0 mm
19:27 -6.4 °C -13.8 °C 34496.6 hPa SSW 12.7 km/h 12.7 km/h 42 % 0 mm
19:32 -6.4 °C -13.8 °C 34496.6 hPa SSW 9 km/h 9.8 km/h 42 % 0 mm
19:37 -6.6 °C -13.9 °C 34496.6 hPa SSW 16.1 km/h 16.1 km/h 42 % 0 mm
19:42 -6.7 °C -14.1 °C 34496.6 hPa WSW 3.7 km/h 6.3 km/h 42 % 0 mm
19:47 -6.8 °C -14 °C 34496.6 hPa WSW 3.7 km/h 6.3 km/h 43 % 0 mm
19:52 -6.9 °C -14.1 °C 34533.8 hPa WSW 3.7 km/h 6.3 km/h 43 % 0 mm
19:57 -7 °C -14.2 °C 34533.8 hPa WSW 12.2 km/h 12.2 km/h 43 % 0 mm
20:02 -7.1 °C -14.2 °C 34533.8 hPa WSW 15 km/h 15 km/h 43 % 0 mm
20:07 -7.2 °C -14.3 °C 34533.8 hPa SSW 11.9 km/h 11.9 km/h 43 % 0 mm
20:12 -7.2 °C -14.3 °C 34533.8 hPa SSW 11.9 km/h 11.9 km/h 43 % 0 mm
20:17 -7.3 °C -14.2 °C 34533.8 hPa SW 11.9 km/h 11.9 km/h 44 % 0 mm
20:22 -7.4 °C -14.6 °C 34496.6 hPa SW 15 km/h 16.1 km/h 43 % 0 mm
20:27 -7.5 °C -14.6 °C 34496.6 hPa SW 17.9 km/h 17.9 km/h 43 % 0 mm
20:32 -7.6 °C -14.7 °C 34496.6 hPa SW 9 km/h 9 km/h 43 % 0 mm
20:37 -7.6 °C -14.7 °C 34533.8 hPa SW 9 km/h 9 km/h 43 % 0 mm
20:42 -7.7 °C -14.6 °C 34533.8 hPa WSW 9 km/h 9 km/h 44 % 0 mm
20:47 -7.7 °C -14.6 °C 34533.8 hPa SW 4.2 km/h 6.3 km/h 44 % 0 mm
20:52 -7.8 °C -14.8 °C 34533.8 hPa West 3.1 km/h 3.1 km/h 44 % 0 mm
20:57 -7.9 °C -14.8 °C 34533.8 hPa SW 9 km/h 9 km/h 44 % 0 mm
21:02 -7.9 °C -14.8 °C 34533.8 hPa SW 6 km/h   44 % 0 mm
21:12 -8.1 °C -14.8 °C 34533.8 hPa SSW 9 km/h 9 km/h 45 % 0 mm
21:17 -8.2 °C -14.9 °C 34533.8 hPa SW 9 km/h 9 km/h 45 % 0 mm
21:22 -8.2 °C -14.9 °C 34533.8 hPa WSW 6 km/h 6 km/h 45 % 0 mm
21:27 -8.3 °C -14.9 °C 34533.8 hPa SW 6.8 km/h 6.8 km/h 45 % 0 mm
21:32 -8.3 °C -14.8 °C 34533.8 hPa SW 6.8 km/h 6.8 km/h 46 % 0 mm
21:37 -8.4 °C -14.7 °C 34533.8 hPa SW 6.8 km/h 6.8 km/h 47 % 0 mm
21:42 -8.4 °C -14.8 °C 34533.8 hPa SW 6.8 km/h 6.8 km/h 47 % 0 mm
21:47 -8.4 °C -14.8 °C 34533.8 hPa SW 6.8 km/h 6.8 km/h 47 % 0 mm
21:52 -8.5 °C -14.8 °C 34533.8 hPa SW 6.8 km/h 6.8 km/h 47 % 0 mm
21:57 -8.6 °C -14.9 °C 34533.8 hPa SW 6.8 km/h 6.8 km/h 47 % 0 mm
22:02 -8.6 °C -14.8 °C 34533.8 hPa Calm   3.7 km/h 48 % 0 mm
22:07 -8.7 °C -14.8 °C 34533.8 hPa Calm   3.7 km/h 48 % 0 mm
22:17 -8.7 °C -14.8 °C 34533.8 hPa Calm   3.7 km/h 48 % 0 mm
22:22 -8.7 °C -14.8 °C 34567.7 hPa Calm   3.7 km/h 48 % 0 mm
22:27 -8.8 °C -14.9 °C 34567.7 hPa Calm   3.7 km/h 48 % 0 mm
22:32 -8.8 °C -14.8 °C 34567.7 hPa Calm   3.7 km/h 49 % 0 mm
22:37 -8.8 °C -14.8 °C 34567.7 hPa Calm   2.3 km/h 49 % 0 mm
22:47 -8.8 °C -14.6 °C 34567.7 hPa Calm     50 % 0 mm
22:52 -8.9 °C -14.6 °C 34567.7 hPa Calm     51 % 0 mm
22:57 -8.9 °C -14.3 °C 34567.7 hPa Calm     52 % 0 mm
23:02 -9 °C -14.5 °C 34567.7 hPa East 6 km/h 6 km/h 52 % 0 mm
23:07 -9 °C -14.3 °C 34601.5 hPa ENE 6 km/h 6 km/h 53 % 0 mm
23:12 -9 °C -14.2 °C 34601.5 hPa ENE 4.2 km/h 4.2 km/h 54 % 0 mm
23:17 -9.1 °C -14.2 °C 34601.5 hPa ENE 4.2 km/h 4.2 km/h 54 % 0 mm
23:22 -9.1 °C -14.1 °C 34601.5 hPa ENE 4.2 km/h 4.2 km/h 55 % 0 mm
23:32 -9.2 °C -14 °C 34601.5 hPa ENE 4.2 km/h 4.2 km/h 56 % 0 mm
23:37 -9.2 °C -13.9 °C 34601.5 hPa ENE 4.2 km/h 4.2 km/h 57 % 0 mm
23:42 -9.2 °C -13.9 °C 34601.5 hPa ENE 4.2 km/h 4.2 km/h 57 % 0 mm
23:48 -9.3 °C -13.8 °C 34601.5 hPa ENE 4.2 km/h 4.2 km/h 58 % 0 mm
23:53 -9.3 °C -13.7 °C 34601.5 hPa ENE 4.2 km/h 4.2 km/h 59 % 0 mm
23:58 -9.3 °C -13.8 °C 34601.5 hPa ENE 3.1 km/h 3.1 km/h 59 % 0 mm
Meteo Sesrovires
Elogis d' Weather Underground - 3.5 mb

Guio original per  Jim McMurry - jmcmurry@mwt.net Adaptat per a la plantilla per  Wim van der Kuil - Leuven-Template.eu

Trobareu la nostra informacio del temps tambe a:

Weather Underground

AWEKAS